Time;durP1;ratioP1;P1;durP2;ratioP2;P2;SDS_P1;SDS_P2;PMS_P1;PMS_P2;Temp;Humidity;BMP_temperature;BMP_pressure;BME280_temperature;BME280_humidity;BME280_pressure;Samples;Min_cycle;Max_cycle;Signal;HPM_P1;HPM_P2
2021/12/21 00:02:07;;;;;;;2.13;0.82;;;;;;;;;;5025301;28;20037;-31
2021/12/21 00:04:33;;;;;;;0.90;0.55;;;;;;;;;;5040378;28;20063;-31
2021/12/21 00:06:58;;;;;;;0.70;0.50;;;;;;;;;;5043976;28;20036;-28
2021/12/21 00:09:24;;;;;;;0.95;0.60;;;;;;;;;;5044404;28;20025;-30
2021/12/21 00:11:50;;;;;;;0.82;0.70;;;;;;;;;;5034724;28;20029;-30
2021/12/21 00:17:43;;;;;;;1.10;0.82;;;;;;;;;;5028727;28;20033;-30
2021/12/21 00:20:24;;;;;;;0.60;0.47;;;;;;;;;;5024439;28;20041;-31
2021/12/21 00:25:22;;;;;;;0.80;0.70;;;;;;;;;;5024384;28;20045;-29
2021/12/21 00:27:48;;;;;;;0.90;0.60;;;;;;;;;;5024833;28;20029;-33
2021/12/21 00:30:14;;;;;;;1.17;0.70;;;;;;;;;;5024781;28;20478;-30
2021/12/21 00:32:40;;;;;;;1.08;0.75;;;;;;;;;;5024993;28;20091;-31
2021/12/21 00:35:06;;;;;;;0.90;0.65;;;;;;;;;;5026062;28;20108;-31
2021/12/21 00:37:32;;;;;;;1.00;0.60;;;;;;;;;;5044279;28;20032;-30
2021/12/21 00:39:57;;;;;;;0.80;0.40;;;;;;;;;;5044617;28;20032;-31
2021/12/21 00:42:23;;;;;;;1.27;0.65;;;;;;;;;;5044861;28;20036;-29
2021/12/21 00:44:48;;;;;;;0.90;0.60;;;;;;;;;;5044131;28;20090;-31
2021/12/21 00:47:15;;;;;;;1.48;0.70;;;;;;;;;;5045024;28;20044;-31
2021/12/21 00:49:45;;;;;;;1.48;0.60;;;;;;;;;;5044520;28;20090;-28
2021/12/21 00:52:11;;;;;;;0.95;0.60;;;;;;;;;;5043740;28;20121;-28
2021/12/21 00:54:37;;;;;;;1.10;0.80;;;;;;;;;;5044644;28;20108;-31
2021/12/21 00:57:04;;;;;;;1.55;0.70;;;;;;;;;;5044656;28;20128;-31
2021/12/21 00:59:33;;;;;;;1.10;0.65;;;;;;;;;;5044626;28;20160;-30
2021/12/21 01:01:59;;;;;;;0.75;0.50;;;;;;;;;;5043880;28;20393;-29
2021/12/21 01:04:31;;;;;;;0.80;0.40;;;;;;;;;;5043921;28;20028;-30
2021/12/21 01:12:49;;;;;;;0.82;0.70;;;;;;;;;;5041982;28;20037;-35
2021/12/21 01:15:43;;;;;;;0.70;0.50;;;;;;;;;;5043620;28;20036;-28
2021/12/21 01:18:23;;;;;;;0.80;0.57;;;;;;;;;;5043445;28;20037;-32
2021/12/21 01:21:01;;;;;;;0.68;0.38;;;;;;;;;;5044550;28;20561;-30
2021/12/21 01:28:33;;;;;;;1.05;0.68;;;;;;;;;;5027693;28;20037;-29
2021/12/21 01:31:17;;;;;;;0.70;0.60;;;;;;;;;;5027794;28;20037;-31
2021/12/21 01:33:58;;;;;;;0.85;0.57;;;;;;;;;;5030809;28;20074;-30
2021/12/21 01:36:53;;;;;;;1.27;0.60;;;;;;;;;;5047762;28;20500;-32
2021/12/21 01:41:59;;;;;;;0.77;0.50;;;;;;;;;;5047483;28;20033;-29
2021/12/21 01:49:43;;;;;;;0.77;0.55;;;;;;;;;;5046356;28;20529;-28
2021/12/21 01:52:14;;;;;;;0.55;0.40;;;;;;;;;;5046327;28;20017;-33
2021/12/21 01:54:39;;;;;;;0.60;0.40;;;;;;;;;;5047541;28;20024;-30
2021/12/21 01:57:05;;;;;;;0.70;0.55;;;;;;;;;;5047148;28;20662;-31
2021/12/21 01:59:32;;;;;;;0.88;0.60;;;;;;;;;;5047059;28;20499;-32
2021/12/21 02:01:57;;;;;;;0.82;0.57;;;;;;;;;;5047119;28;20021;-30
2021/12/21 02:04:23;;;;;;;0.77;0.52;;;;;;;;;;5046985;28;20025;-30
2021/12/21 02:06:49;;;;;;;1.00;0.70;;;;;;;;;;5047334;28;20029;-29
2021/12/21 02:09:16;;;;;;;1.63;0.60;;;;;;;;;;5046375;28;20043;-32
2021/12/21 02:11:42;;;;;;;0.68;0.40;;;;;;;;;;5045670;28;20607;-34
2021/12/21 02:14:09;;;;;;;0.30;0.30;;;;;;;;;;5046415;28;20049;-30
2021/12/21 02:17:04;;;;;;;0.80;0.65;;;;;;;;;;5047196;28;20079;-30
2021/12/21 02:19:39;;;;;;;0.60;0.40;;;;;;;;;;5047057;28;20090;-31
2021/12/21 02:22:15;;;;;;;0.90;0.55;;;;;;;;;;5034303;28;20029;-30
2021/12/21 02:24:52;;;;;;;0.57;0.38;;;;;;;;;;5026387;28;20025;-33
2021/12/21 02:27:29;;;;;;;0.80;0.40;;;;;;;;;;5034159;28;20044;-32
2021/12/21 02:29:55;;;;;;;0.75;0.50;;;;;;;;;;5046744;28;20027;-29
2021/12/21 02:32:22;;;;;;;0.52;0.35;;;;;;;;;;5046694;28;20025;-34
2021/12/21 02:34:47;;;;;;;0.63;0.40;;;;;;;;;;5046590;28;20025;-30
2021/12/21 02:37:13;;;;;;;0.75;0.50;;;;;;;;;;5046859;28;20036;-30
2021/12/21 02:39:38;;;;;;;0.40;0.35;;;;;;;;;;5046363;28;20565;-30
2021/12/21 02:42:05;;;;;;;0.70;0.60;;;;;;;;;;5046373;28;20033;-29
2021/12/21 02:44:31;;;;;;;1.38;0.45;;;;;;;;;;5046408;28;20024;-28
2021/12/21 02:46:56;;;;;;;0.65;0.43;;;;;;;;;;5046496;28;20606;-30
2021/12/21 02:49:22;;;;;;;0.70;0.50;;;;;;;;;;5045862;28;20477;-28
2021/12/21 02:51:47;;;;;;;0.63;0.40;;;;;;;;;;5046314;28;20017;-33
2021/12/21 02:54:13;;;;;;;0.57;0.30;;;;;;;;;;5046612;28;20028;-29
2021/12/21 02:56:39;;;;;;;0.47;0.40;;;;;;;;;;5045337;28;20053;-27
2021/12/21 02:59:04;;;;;;;0.73;0.50;;;;;;;;;;5045790;28;20033;-32
2021/12/21 03:01:30;;;;;;;0.60;0.40;;;;;;;;;;5044720;28;20025;-28
2021/12/21 03:03:56;;;;;;;0.35;0.30;;;;;;;;;;5045848;28;20047;-30
2021/12/21 03:09:25;;;;;;;0.63;0.50;;;;;;;;;;5044676;28;20063;-31
2021/12/21 03:12:09;;;;;;;0.82;0.63;;;;;;;;;;5046025;28;20029;-33
2021/12/21 03:14:34;;;;;;;0.45;0.40;;;;;;;;;;5046020;28;20414;-31
2021/12/21 03:17:00;;;;;;;0.70;0.50;;;;;;;;;;5045439;28;20096;-31
2021/12/21 03:19:25;;;;;;;0.40;0.30;;;;;;;;;;5045510;28;20701;-28
2021/12/21 03:21:53;;;;;;;0.47;0.40;;;;;;;;;;5045494;28;20413;-28
2021/12/21 03:24:18;;;;;;;0.40;0.30;;;;;;;;;;5045783;28;20044;-31
2021/12/21 03:26:44;;;;;;;0.40;0.30;;;;;;;;;;5026335;28;20056;-33
2021/12/21 03:29:09;;;;;;;0.60;0.50;;;;;;;;;;5024697;28;20076;-29
2021/12/21 03:31:35;;;;;;;0.20;0.20;;;;;;;;;;5025525;28;20033;-31
2021/12/21 03:34:00;;;;;;;0.55;0.40;;;;;;;;;;5025745;28;20025;-31
2021/12/21 03:36:26;;;;;;;0.40;0.30;;;;;;;;;;5025453;28;20072;-32
2021/12/21 03:39:07;;;;;;;0.40;0.30;;;;;;;;;;5025401;28;20029;-30
2021/12/21 03:41:33;;;;;;;0.20;0.20;;;;;;;;;;5024550;28;20029;-34
2021/12/21 03:44:01;;;;;;;0.47;0.32;;;;;;;;;;5025047;28;20318;-31
2021/12/21 03:46:28;;;;;;;0.30;0.30;;;;;;;;;;5025510;28;20462;-29
2021/12/21 03:48:53;;;;;;;0.30;0.30;;;;;;;;;;5025635;28;20399;-29
2021/12/21 03:51:19;;;;;;;1.20;0.40;;;;;;;;;;5025457;28;20099;-30
2021/12/21 03:53:45;;;;;;;0.45;0.32;;;;;;;;;;5025335;28;20491;-31
2021/12/21 03:56:38;;;;;;;0.40;0.38;;;;;;;;;;5025408;28;20041;-31
2021/12/21 03:59:04;;;;;;;0.88;0.47;;;;;;;;;;5025167;28;20052;-32
2021/12/21 04:01:30;;;;;;;0.50;0.30;;;;;;;;;;5025106;28;20041;-36
2021/12/21 04:03:55;;;;;;;0.22;0.20;;;;;;;;;;5025440;28;20026;-31
2021/12/21 04:06:21;;;;;;;0.50;0.30;;;;;;;;;;5024971;28;20476;-30
2021/12/21 04:08:46;;;;;;;0.28;0.25;;;;;;;;;;5024311;28;20095;-29
2021/12/21 04:11:12;;;;;;;0.30;0.30;;;;;;;;;;5024819;28;20034;-30
2021/12/21 04:13:37;;;;;;;0.32;0.30;;;;;;;;;;5031215;28;20121;-30
2021/12/21 04:16:05;;;;;;;0.32;0.30;;;;;;;;;;5039978;28;20103;-33
2021/12/21 04:18:35;;;;;;;0.75;0.30;;;;;;;;;;5036704;28;20037;-33
2021/12/21 04:21:01;;;;;;;0.28;0.20;;;;;;;;;;5038389;28;20036;-31
2021/12/21 04:23:26;;;;;;;0.38;0.20;;;;;;;;;;5033219;28;20057;-34
2021/12/21 04:25:52;;;;;;;0.63;0.30;;;;;;;;;;5033202;28;20616;-30
2021/12/21 04:28:17;;;;;;;0.50;0.30;;;;;;;;;;5036267;28;20028;-30
2021/12/21 04:30:43;;;;;;;0.20;0.20;;;;;;;;;;5037389;28;20032;-32
2021/12/21 04:33:08;;;;;;;0.10;0.10;;;;;;;;;;5042876;28;20059;-30
2021/12/21 04:35:34;;;;;;;0.32;0.20;;;;;;;;;;5041490;28;20407;-32
2021/12/21 04:38:12;;;;;;;0.15;0.10;;;;;;;;;;5023094;28;20029;-31
2021/12/21 04:40:42;;;;;;;0.22;0.20;;;;;;;;;;5022434;28;20036;-28
2021/12/21 04:43:08;;;;;;;0.30;0.30;;;;;;;;;;5022456;28;20650;-32
2021/12/21 04:45:34;;;;;;;1.50;0.43;;;;;;;;;;5022408;28;20029;-34
2021/12/21 04:47:59;;;;;;;0.22;0.20;;;;;;;;;;5022595;28;20045;-32
2021/12/21 04:50:25;;;;;;;0.22;0.20;;;;;;;;;;5022487;28;20503;-29
2021/12/21 04:52:50;;;;;;;0.30;0.25;;;;;;;;;;5022539;28;20112;-30
2021/12/21 04:55:15;;;;;;;0.28;0.20;;;;;;;;;;5022368;28;20022;-29
2021/12/21 04:57:43;;;;;;;0.80;0.20;;;;;;;;;;5024113;28;20115;-28
2021/12/21 05:00:10;;;;;;;0.28;0.22;;;;;;;;;;5026120;28;20036;-31
2021/12/21 05:02:35;;;;;;;0.43;0.20;;;;;;;;;;5026071;28;20045;-31
2021/12/21 05:05:01;;;;;;;0.40;0.30;;;;;;;;;;5026374;28;20034;-28
2021/12/21 05:07:30;;;;;;;0.45;0.30;;;;;;;;;;5027647;28;20498;-29
2021/12/21 05:09:57;;;;;;;0.22;0.20;;;;;;;;;;5025978;28;20140;-31
2021/12/21 05:12:23;;;;;;;0.50;0.40;;;;;;;;;;5025861;28;20037;-32
2021/12/21 05:14:49;;;;;;;0.52;0.30;;;;;;;;;;5026025;28;20056;-30
2021/12/21 05:17:14;;;;;;;0.40;0.20;;;;;;;;;;5026208;28;20103;-34
2021/12/21 05:19:40;;;;;;;0.30;0.20;;;;;;;;;;5025628;28;20057;-29
2021/12/21 05:22:05;;;;;;;0.50;0.20;;;;;;;;;;5025853;28;20049;-28
2021/12/21 05:24:31;;;;;;;0.45;0.20;;;;;;;;;;5025484;28;20044;-30
2021/12/21 05:26:57;;;;;;;1.95;0.20;;;;;;;;;;5033673;28;20036;-31
2021/12/21 05:29:23;;;;;;;0.30;0.20;;;;;;;;;;5030844;28;20413;-33
2021/12/21 05:31:49;;;;;;;0.20;0.20;;;;;;;;;;5007591;28;20083;-29
2021/12/21 05:34:14;;;;;;;0.30;0.20;;;;;;;;;;5039315;28;20040;-30
2021/12/21 05:36:40;;;;;;;0.47;0.28;;;;;;;;;;5028248;28;20040;-33
2021/12/21 05:39:15;;;;;;;0.32;0.20;;;;;;;;;;5036198;28;20029;-31
2021/12/21 05:41:49;;;;;;;0.28;0.15;;;;;;;;;;5027081;28;20029;-30
2021/12/21 05:44:15;;;;;;;0.40;0.20;;;;;;;;;;5027565;28;20029;-31
2021/12/21 05:46:41;;;;;;;0.60;0.30;;;;;;;;;;5027191;28;20412;-28
2021/12/21 05:49:06;;;;;;;0.20;0.20;;;;;;;;;;5027789;28;20092;-33
2021/12/21 05:51:32;;;;;;;0.20;0.20;;;;;;;;;;5026942;28;20045;-31
2021/12/21 05:53:57;;;;;;;0.55;0.20;;;;;;;;;;5039082;28;20028;-30
2021/12/21 05:56:23;;;;;;;0.47;0.32;;;;;;;;;;5047046;28;20036;-31
2021/12/21 05:58:48;;;;;;;0.65;0.35;;;;;;;;;;5037791;28;20033;-32
2021/12/21 06:01:14;;;;;;;0.30;0.20;;;;;;;;;;5027330;28;20021;-29
2021/12/21 06:03:40;;;;;;;0.80;0.40;;;;;;;;;;5027091;28;20427;-32
2021/12/21 06:06:11;;;;;;;3.47;0.50;;;;;;;;;;5027219;28;20188;-31
2021/12/21 06:08:36;;;;;;;1.60;0.40;;;;;;;;;;5036972;28;20027;-30
2021/12/21 06:11:05;;;;;;;4.63;0.55;;;;;;;;;;5038507;28;20025;-35
2021/12/21 06:27:06;;;;;;;2.97;0.40;;;;;;;;;;5035127;28;20043;-30
2021/12/21 06:29:32;;;;;;;6.15;0.70;;;;;;;;;;5035088;28;20025;-29
2021/12/21 06:31:58;;;;;;;2.28;0.65;;;;;;;;;;5037093;28;20052;-30
2021/12/21 06:34:23;;;;;;;3.03;0.50;;;;;;;;;;5033590;28;20120;-29
2021/12/21 06:36:49;;;;;;;1.48;0.40;;;;;;;;;;5024849;28;20511;-30
2021/12/21 06:39:15;;;;;;;3.13;0.85;;;;;;;;;;5024573;28;20515;-31
2021/12/21 06:41:41;;;;;;;2.45;0.65;;;;;;;;;;5024391;28;20060;-29
2021/12/21 06:44:09;;;;;;;1.08;0.50;;;;;;;;;;5025387;28;20513;-30
2021/12/21 06:51:54;;;;;;;1.95;0.40;;;;;;;;;;5025626;28;20733;-34
2021/12/21 06:54:20;;;;;;;1.90;0.57;;;;;;;;;;5026326;28;20471;-29
2021/12/21 06:56:46;;;;;;;3.03;0.63;;;;;;;;;;5024917;28;20136;-29
2021/12/21 06:59:11;;;;;;;0.77;0.40;;;;;;;;;;5026113;28;20041;-29
2021/12/21 07:01:38;;;;;;;0.63;0.43;;;;;;;;;;5035581;28;20086;-31
2021/12/21 07:04:05;;;;;;;0.85;0.40;;;;;;;;;;5046457;28;20063;-30
2021/12/21 07:06:32;;;;;;;3.15;0.85;;;;;;;;;;5046222;28;20040;-29
2021/12/21 07:19:20;;;;;;;1.83;0.30;;;;;;;;;;5043688;28;20109;-31
2021/12/21 07:21:46;;;;;;;5.93;0.38;;;;;;;;;;5045036;28;20485;-32
2021/12/21 07:24:11;;;;;;;0.75;0.43;;;;;;;;;;5043831;28;20016;-29
2021/12/21 07:26:37;;;;;;;2.05;0.50;;;;;;;;;;5045660;28;20973;-32
2021/12/21 07:29:03;;;;;;;2.75;0.32;;;;;;;;;;5045815;28;20017;-30
2021/12/21 07:31:28;;;;;;;1.08;0.30;;;;;;;;;;5045534;28;20444;-34
2021/12/21 07:33:54;;;;;;;2.63;0.50;;;;;;;;;;5045640;28;20067;-32
2021/12/21 07:36:20;;;;;;;0.70;0.40;;;;;;;;;;5045468;28;20462;-28
2021/12/21 07:38:45;;;;;;;0.70;0.40;;;;;;;;;;5045504;28;20037;-33
2021/12/21 07:41:11;;;;;;;1.70;0.52;;;;;;;;;;5045309;28;20639;-29
2021/12/21 07:43:37;;;;;;;3.85;0.32;;;;;;;;;;5045053;28;20044;-30
2021/12/21 07:46:02;;;;;;;1.75;0.40;;;;;;;;;;5045287;28;20033;-31
2021/12/21 07:48:28;;;;;;;0.90;0.70;;;;;;;;;;5045414;28;20175;-32
2021/12/21 07:50:55;;;;;;;0.55;0.40;;;;;;;;;;5044891;28;20510;-30
2021/12/21 07:53:21;;;;;;;0.80;0.50;;;;;;;;;;5045173;28;20534;-30
2021/12/21 07:55:47;;;;;;;1.15;0.60;;;;;;;;;;5044948;28;20059;-30
2021/12/21 07:58:12;;;;;;;0.93;0.50;;;;;;;;;;5045073;28;20049;-29
2021/12/21 08:00:38;;;;;;;1.25;0.50;;;;;;;;;;5044987;28;20055;-31
2021/12/21 08:03:04;;;;;;;0.60;0.40;;;;;;;;;;5045278;28;20037;-28
2021/12/21 08:05:32;;;;;;;3.15;0.40;;;;;;;;;;5045074;28;20025;-31
2021/12/21 08:08:09;;;;;;;0.95;0.47;;;;;;;;;;5044737;28;20112;-30
2021/12/21 08:10:53;;;;;;;0.60;0.40;;;;;;;;;;5044829;28;20033;-32
2021/12/21 08:13:19;;;;;;;1.15;0.60;;;;;;;;;;5032857;28;20025;-30
2021/12/21 08:15:45;;;;;;;3.25;0.70;;;;;;;;;;5024892;28;20233;-32
2021/12/21 08:18:10;;;;;;;1.05;0.50;;;;;;;;;;5024971;28;20087;-30
2021/12/21 08:20:37;;;;;;;1.13;0.70;;;;;;;;;;5024906;28;20025;-27
2021/12/21 08:23:03;;;;;;;0.77;0.47;;;;;;;;;;5023867;28;20021;-28
2021/12/21 08:25:28;;;;;;;1.27;0.55;;;;;;;;;;5024958;28;20105;-35
2021/12/21 08:27:55;;;;;;;2.63;0.60;;;;;;;;;;5024726;28;20519;-30
2021/12/21 08:30:20;;;;;;;1.83;0.57;;;;;;;;;;5025212;28;20518;-32
2021/12/21 08:32:46;;;;;;;2.58;0.75;;;;;;;;;;5028692;28;20017;-30
2021/12/21 08:35:14;;;;;;;0.90;0.50;;;;;;;;;;5029235;28;20055;-30
2021/12/21 08:37:41;;;;;;;1.00;0.68;;;;;;;;;;5028789;28;20033;-29
2021/12/21 08:40:07;;;;;;;0.60;0.32;;;;;;;;;;5031479;28;20021;-31
2021/12/21 08:42:36;;;;;;;2.15;0.90;;;;;;;;;;5040034;28;20032;-29
2021/12/21 08:45:06;;;;;;;1.02;0.60;;;;;;;;;;5048415;28;20033;-30
2021/12/21 08:47:35;;;;;;;2.50;0.60;;;;;;;;;;5048415;28;20025;-32
2021/12/21 08:50:01;;;;;;;1.48;0.60;;;;;;;;;;5038172;28;20111;-31
2021/12/21 08:52:26;;;;;;;8.63;0.90;;;;;;;;;;5033356;28;20117;-30
2021/12/21 08:54:52;;;;;;;2.50;0.80;;;;;;;;;;5026631;28;20041;-34
2021/12/21 08:57:17;;;;;;;2.13;0.73;;;;;;;;;;5027341;28;20084;-30
2021/12/21 08:59:43;;;;;;;0.88;0.52;;;;;;;;;;5027370;28;20053;-29
2021/12/21 09:02:09;;;;;;;1.58;0.60;;;;;;;;;;5026871;28;20049;-30
2021/12/21 09:04:34;;;;;;;0.60;0.40;;;;;;;;;;5026574;28;20025;-30
2021/12/21 09:07:00;;;;;;;1.00;0.55;;;;;;;;;;5025939;28;20553;-31
2021/12/21 09:09:25;;;;;;;3.42;0.70;;;;;;;;;;5027632;28;20026;-34
2021/12/21 09:11:51;;;;;;;1.10;0.50;;;;;;;;;;5027647;28;20033;-30
2021/12/21 09:14:18;;;;;;;1.55;0.50;;;;;;;;;;5028132;28;20026;-31
2021/12/21 09:16:44;;;;;;;1.33;0.60;;;;;;;;;;5028413;28;20056;-29
2021/12/21 09:19:09;;;;;;;1.58;0.80;;;;;;;;;;5027639;28;20483;-31
2021/12/21 09:21:35;;;;;;;1.23;0.50;;;;;;;;;;5027936;28;20022;-32
2021/12/21 09:24:00;;;;;;;2.78;0.70;;;;;;;;;;5027768;28;20032;-34
2021/12/21 09:26:27;;;;;;;1.25;0.60;;;;;;;;;;5027343;28;20033;-33
2021/12/21 09:28:53;;;;;;;2.85;0.60;;;;;;;;;;5027720;28;20030;-29
2021/12/21 09:31:18;;;;;;;1.25;0.50;;;;;;;;;;5027871;28;20048;-32
2021/12/21 09:33:44;;;;;;;0.88;0.52;;;;;;;;;;5027700;28;20030;-32
2021/12/21 09:36:09;;;;;;;1.48;0.98;;;;;;;;;;5027751;28;20017;-30
2021/12/21 09:38:35;;;;;;;0.70;0.60;;;;;;;;;;5027599;28;20112;-30
2021/12/21 09:41:00;;;;;;;2.00;0.70;;;;;;;;;;5027585;28;20654;-31
2021/12/21 09:43:26;;;;;;;0.82;0.73;;;;;;;;;;5026167;28;20075;-32
2021/12/21 09:45:51;;;;;;;1.10;0.68;;;;;;;;;;5026960;28;20120;-28
2021/12/21 09:48:17;;;;;;;0.88;0.60;;;;;;;;;;5027567;28;20033;-34
2021/12/21 09:50:43;;;;;;;0.98;0.70;;;;;;;;;;5027670;28;20488;-30
2021/12/21 09:53:08;;;;;;;1.27;0.80;;;;;;;;;;5028004;28;20492;-33
2021/12/21 09:55:34;;;;;;;0.88;0.63;;;;;;;;;;5027604;28;20024;-33
2021/12/21 09:57:59;;;;;;;1.20;0.65;;;;;;;;;;5027154;28;20045;-31
2021/12/21 10:00:28;;;;;;;2.75;0.80;;;;;;;;;;5026237;28;20029;-29
2021/12/21 10:03:01;;;;;;;0.88;0.70;;;;;;;;;;5026924;28;20030;-33
2021/12/21 10:05:27;;;;;;;1.13;0.70;;;;;;;;;;5027080;28;20036;-30
2021/12/21 10:08:00;;;;;;;1.63;0.80;;;;;;;;;;5027081;28;20029;-31
2021/12/21 10:10:25;;;;;;;1.13;0.70;;;;;;;;;;5027168;28;20025;-29
2021/12/21 10:12:51;;;;;;;1.05;0.70;;;;;;;;;;5026674;28;20041;-28
2021/12/21 10:15:20;;;;;;;0.65;0.47;;;;;;;;;;5025808;28;20029;-33
2021/12/21 10:18:00;;;;;;;0.88;0.77;;;;;;;;;;5026447;28;20044;-34
2021/12/21 10:20:37;;;;;;;0.80;0.50;;;;;;;;;;5027214;28;20082;-28
2021/12/21 10:23:23;;;;;;;2.85;0.60;;;;;;;;;;5026851;28;20060;-30
2021/12/21 10:26:06;;;;;;;1.70;0.57;;;;;;;;;;5045169;28;20079;-33
2021/12/21 10:28:48;;;;;;;2.47;0.50;;;;;;;;;;5047117;28;20112;-33
2021/12/21 10:31:24;;;;;;;1.38;0.60;;;;;;;;;;5046787;28;20033;-30
2021/12/21 10:33:49;;;;;;;0.68;0.47;;;;;;;;;;5046350;28;20056;-30
2021/12/21 10:36:15;;;;;;;0.70;0.47;;;;;;;;;;5045866;28;20075;-30
2021/12/21 10:38:50;;;;;;;2.60;0.80;;;;;;;;;;5045782;28;20116;-32
2021/12/21 10:41:17;;;;;;;3.78;0.90;;;;;;;;;;5046652;28;20056;-33
2021/12/21 10:43:43;;;;;;;0.60;0.50;;;;;;;;;;5046319;28;20025;-33
2021/12/21 10:46:09;;;;;;;0.90;0.55;;;;;;;;;;5045886;28;20032;-32
2021/12/21 10:48:36;;;;;;;0.90;0.57;;;;;;;;;;5046261;28;20043;-30
2021/12/21 10:51:03;;;;;;;0.63;0.47;;;;;;;;;;5046444;28;20111;-33
2021/12/21 10:53:29;;;;;;;1.13;0.35;;;;;;;;;;5046173;28;20071;-30
2021/12/21 10:56:06;;;;;;;0.68;0.52;;;;;;;;;;5046183;28;20053;-28
2021/12/21 10:58:35;;;;;;;1.17;0.57;;;;;;;;;;5046020;28;20210;-27
2021/12/21 11:01:02;;;;;;;0.57;0.40;;;;;;;;;;5046166;28;20487;-31
2021/12/21 11:03:36;;;;;;;0.98;0.55;;;;;;;;;;5046250;28;20031;-32
2021/12/21 11:06:12;;;;;;;1.75;0.60;;;;;;;;;;5045867;28;20115;-29
2021/12/21 11:08:39;;;;;;;0.70;0.50;;;;;;;;;;5045956;28;20037;-28
2021/12/21 11:11:10;;;;;;;0.70;0.50;;;;;;;;;;5046001;28;20052;-32
2021/12/21 11:13:36;;;;;;;2.63;0.57;;;;;;;;;;5045913;28;20414;-28
2021/12/21 11:16:06;;;;;;;0.80;0.65;;;;;;;;;;5045252;28;20039;-30
2021/12/21 11:18:33;;;;;;;0.77;0.50;;;;;;;;;;5045921;28;20116;-31
2021/12/21 11:20:58;;;;;;;0.90;0.45;;;;;;;;;;5045562;28;20499;-29
2021/12/21 11:23:25;;;;;;;0.57;0.50;;;;;;;;;;5042276;28;20025;-29
2021/12/21 11:25:53;;;;;;;0.55;0.45;;;;;;;;;;5025152;28;20411;-32
2021/12/21 11:28:26;;;;;;;1.77;0.70;;;;;;;;;;5024660;28;20030;-34
2021/12/21 11:30:53;;;;;;;1.08;0.70;;;;;;;;;;5025571;28;20488;-29
2021/12/21 11:33:19;;;;;;;0.85;0.55;;;;;;;;;;5024214;28;20030;-30
2021/12/21 11:38:11;;;;;;;1.40;0.60;;;;;;;;;;5025728;28;20109;-30
2021/12/21 11:40:39;;;;;;;0.80;0.50;;;;;;;;;;5025690;28;20064;-30
2021/12/21 11:43:23;;;;;;;1.10;0.65;;;;;;;;;;5025836;28;20036;-28
2021/12/21 11:45:54;;;;;;;0.98;0.52;;;;;;;;;;5024010;28;20053;-29
2021/12/21 11:48:53;;;;;;;0.77;0.50;;;;;;;;;;5024574;28;20080;-32
2021/12/21 11:51:27;;;;;;;1.02;0.60;;;;;;;;;;5025590;28;20407;-28
2021/12/21 11:53:53;;;;;;;1.08;0.50;;;;;;;;;;5025199;28;20036;-29
2021/12/21 11:56:21;;;;;;;8.18;0.70;;;;;;;;;;5025268;28;20048;-29
2021/12/21 11:58:49;;;;;;;0.80;0.52;;;;;;;;;;5023759;28;20037;-28
2021/12/21 12:01:23;;;;;;;0.90;0.60;;;;;;;;;;5007892;28;20021;-29
2021/12/21 12:04:03;;;;;;;0.85;0.60;;;;;;;;;;5025260;28;20029;-32
2021/12/21 12:06:45;;;;;;;0.45;0.32;;;;;;;;;;5024020;28;20022;-30
2021/12/21 12:09:20;;;;;;;0.98;0.60;;;;;;;;;;5025424;28;20037;-31
2021/12/21 12:11:45;;;;;;;0.68;0.50;;;;;;;;;;5023889;28;20033;-30
2021/12/21 12:14:13;;;;;;;0.88;0.47;;;;;;;;;;5024605;28;20427;-32
2021/12/21 12:17:01;;;;;;;0.93;0.60;;;;;;;;;;5031667;28;20034;-31
2021/12/21 12:19:31;;;;;;;1.05;0.63;;;;;;;;;;5032415;28;20038;-29
2021/12/21 12:22:04;;;;;;;5.60;0.80;;;;;;;;;;5034425;28;20076;-30
2021/12/21 12:24:43;;;;;;;0.43;0.40;;;;;;;;;;5031971;28;20021;-32
2021/12/21 12:27:20;;;;;;;0.82;0.47;;;;;;;;;;5034303;28;20705;-34
2021/12/21 12:29:57;;;;;;;1.05;0.60;;;;;;;;;;5031734;28;20061;-29
2021/12/21 12:32:32;;;;;;;0.47;0.40;;;;;;;;;;5036559;28;20025;-30
2021/12/21 12:35:22;;;;;;;0.60;0.45;;;;;;;;;;5033010;28;20075;-31
2021/12/21 12:37:50;;;;;;;0.85;0.60;;;;;;;;;;5035937;28;20752;-34
2021/12/21 12:40:15;;;;;;;0.68;0.40;;;;;;;;;;5035103;28;20030;-32
2021/12/21 12:42:41;;;;;;;0.80;0.40;;;;;;;;;;5032118;28;20527;-34
2021/12/21 12:45:09;;;;;;;0.90;0.40;;;;;;;;;;5033496;28;20025;-31
2021/12/21 12:47:42;;;;;;;0.80;0.50;;;;;;;;;;5033085;28;20028;-29
2021/12/21 12:50:25;;;;;;;0.80;0.63;;;;;;;;;;5035994;28;20029;-29
2021/12/21 12:53:00;;;;;;;0.65;0.47;;;;;;;;;;5030539;28;20514;-29
2021/12/21 12:55:35;;;;;;;1.80;0.47;;;;;;;;;;5034065;28;20037;-30
2021/12/21 12:58:35;;;;;;;0.80;0.50;;;;;;;;;;5024507;28;20475;-33
2021/12/21 13:01:18;;;;;;;0.85;0.52;;;;;;;;;;5034279;28;20084;-30
2021/12/21 13:03:43;;;;;;;0.80;0.60;;;;;;;;;;5034632;28;20107;-36
2021/12/21 13:06:10;;;;;;;0.65;0.52;;;;;;;;;;5032947;28;20025;-29
2021/12/21 13:08:36;;;;;;;2.38;0.50;;;;;;;;;;5031781;28;20029;-30
2021/12/21 13:11:02;;;;;;;0.65;0.40;;;;;;;;;;5036229;28;20109;-31
2021/12/21 13:13:42;;;;;;;1.23;0.60;;;;;;;;;;5032159;28;20507;-33
2021/12/21 13:16:09;;;;;;;0.80;0.50;;;;;;;;;;5023029;28;20116;-29
2021/12/21 13:18:44;;;;;;;0.75;0.50;;;;;;;;;;5027015;28;20109;-28
2021/12/21 13:21:26;;;;;;;1.52;0.50;;;;;;;;;;5026843;28;20025;-31
2021/12/21 13:24:09;;;;;;;0.88;0.65;;;;;;;;;;5027434;28;20049;-34
2021/12/21 13:26:48;;;;;;;0.80;0.60;;;;;;;;;;5027886;28;20614;-28
2021/12/21 13:29:14;;;;;;;0.77;0.50;;;;;;;;;;5027802;28;20026;-32
2021/12/21 13:31:40;;;;;;;0.85;0.57;;;;;;;;;;5033689;28;20644;-33
2021/12/21 13:34:05;;;;;;;1.00;0.70;;;;;;;;;;5048011;28;20096;-29
2021/12/21 13:36:39;;;;;;;1.05;0.77;;;;;;;;;;5047691;28;20403;-30
2021/12/21 13:39:24;;;;;;;1.08;0.73;;;;;;;;;;5047751;28;20029;-28
2021/12/21 13:41:58;;;;;;;1.02;0.80;;;;;;;;;;5047718;28;20025;-29
2021/12/21 13:44:26;;;;;;;0.88;0.50;;;;;;;;;;5047702;28;20021;-29
2021/12/21 13:46:55;;;;;;;0.73;0.60;;;;;;;;;;5047373;28;20106;-33
2021/12/21 13:49:20;;;;;;;1.10;0.70;;;;;;;;;;5041560;28;20029;-28
2021/12/21 13:51:47;;;;;;;1.23;0.68;;;;;;;;;;5042955;28;20033;-31
2021/12/21 13:54:15;;;;;;;2.05;0.75;;;;;;;;;;5027645;28;20029;-30
2021/12/21 13:56:41;;;;;;;1.17;0.80;;;;;;;;;;5027233;28;20646;-31
2021/12/21 13:59:09;;;;;;;1.40;1.00;;;;;;;;;;5027732;28;20044;-28
2021/12/21 14:01:36;;;;;;;8.52;2.83;;;;;;;;;;5027761;28;20033;-30
2021/12/21 14:04:08;;;;;;;12.95;2.20;;;;;;;;;;5027200;28;20400;-35
2021/12/21 14:06:35;;;;;;;7.60;2.92;;;;;;;;;;5025407;28;20036;-30
2021/12/21 14:09:02;;;;;;;4.88;2.65;;;;;;;;;;5025576;28;20527;-30
2021/12/21 14:11:32;;;;;;;7.93;3.55;;;;;;;;;;5027315;28;20029;-30
2021/12/21 14:13:58;;;;;;;9.88;3.20;;;;;;;;;;5026834;28;20276;-36
2021/12/21 14:16:26;;;;;;;7.15;3.13;;;;;;;;;;5029961;28;20546;-30
2021/12/21 14:18:58;;;;;;;9.07;3.00;;;;;;;;;;5027121;28;20037;-34
2021/12/21 14:21:31;;;;;;;8.93;3.10;;;;;;;;;;5027125;28;20030;-30
2021/12/21 14:23:59;;;;;;;5.13;2.22;;;;;;;;;;5026397;28;20174;-30
2021/12/21 14:26:41;;;;;;;7.28;2.22;;;;;;;;;;5028548;28;20436;-31
2021/12/21 14:29:11;;;;;;;5.35;2.25;;;;;;;;;;5028279;28;20044;-33
2021/12/21 14:31:48;;;;;;;5.53;2.35;;;;;;;;;;5034645;28;20041;-33
2021/12/21 14:34:22;;;;;;;4.47;2.30;;;;;;;;;;5037371;28;20368;-29
2021/12/21 14:36:47;;;;;;;5.18;2.00;;;;;;;;;;5036279;28;20025;-31
2021/12/21 14:39:14;;;;;;;4.07;1.85;;;;;;;;;;5043607;28;20029;-28
2021/12/21 14:41:45;;;;;;;4.43;1.80;;;;;;;;;;5039136;28;20114;-34
2021/12/21 14:44:15;;;;;;;3.38;1.90;;;;;;;;;;5041540;28;20104;-28
2021/12/21 14:47:13;;;;;;;5.05;1.90;;;;;;;;;;5038524;28;20040;-28
2021/12/21 14:49:51;;;;;;;3.70;1.52;;;;;;;;;;5035299;28;20120;-33
2021/12/21 14:52:22;;;;;;;6.95;2.40;;;;;;;;;;5031129;28;20036;-30
2021/12/21 14:54:59;;;;;;;10.15;3.10;;;;;;;;;;5033508;28;20104;-32
2021/12/21 14:57:33;;;;;;;11.05;4.05;;;;;;;;;;5030813;28;20424;-34
2021/12/21 14:59:59;;;;;;;15.20;4.93;;;;;;;;;;5037248;28;20030;-37
2021/12/21 15:02:49;;;;;;;18.85;6.22;;;;;;;;;;5035300;28;20174;-31
2021/12/21 15:05:16;;;;;;;20.55;7.38;;;;;;;;;;5033628;28;20030;-31
2021/12/21 15:07:42;;;;;;;22.00;8.68;;;;;;;;;;5034221;28;20017;-33
2021/12/21 15:10:12;;;;;;;25.77;9.40;;;;;;;;;;5034472;28;20553;-32
2021/12/21 15:12:38;;;;;;;29.05;9.27;;;;;;;;;;5037731;28;20039;-33
2021/12/21 15:15:04;;;;;;;32.25;10.38;;;;;;;;;;5034358;28;20021;-30
2021/12/21 15:17:29;;;;;;;32.03;10.65;;;;;;;;;;5033953;28;20029;-28
2021/12/21 15:19:55;;;;;;;25.33;8.50;;;;;;;;;;5030700;28;20056;-29
2021/12/21 15:22:20;;;;;;;28.98;9.30;;;;;;;;;;5042549;28;20396;-30
2021/12/21 15:24:46;;;;;;;27.48;9.63;;;;;;;;;;5033400;28;20073;-31
2021/12/21 15:27:12;;;;;;;39.50;11.27;;;;;;;;;;5026627;28;20029;-30
2021/12/21 15:29:37;;;;;;;28.17;9.43;;;;;;;;;;5040118;28;20106;-29
2021/12/21 15:32:03;;;;;;;38.05;11.57;;;;;;;;;;5034723;28;20036;-28
2021/12/21 15:34:29;;;;;;;24.75;9.25;;;;;;;;;;5032506;28;20483;-34
2021/12/21 15:36:54;;;;;;;31.92;10.63;;;;;;;;;;5030258;28;20029;-34
2021/12/21 15:39:22;;;;;;;36.13;11.15;;;;;;;;;;5029959;28;20559;-29
2021/12/21 15:41:49;;;;;;;29.80;10.23;;;;;;;;;;5030475;28;20024;-30
2021/12/21 15:44:17;;;;;;;25.70;9.55;;;;;;;;;;5032023;28;20022;-32
2021/12/21 15:46:43;;;;;;;29.75;9.63;;;;;;;;;;5035306;28;20072;-31
2021/12/21 15:49:09;;;;;;;26.75;9.77;;;;;;;;;;5033733;28;20029;-30
2021/12/21 15:51:34;;;;;;;24.30;9.00;;;;;;;;;;5035163;28;20266;-34